Manning, Arkansas
Current Conditions -  °F | °C
As of 9:55 PM on Sunday 23 Nov 2014 (Local Time) from KCDH Reporting Station
Clear Clear  
Wind Chill: 63°   Ceiling: Unl
Heat Index: 63°   Visibility: 10mi
Dew Point: 50°   Wind: 13mph
Humidity: 63%   Direction: 60°ENE
Pressure: 29.49"   Gusts: 20mph
Location:  33.8996°N, 92.782°W
Report Text: KCDH 240355Z AUTO 06011G17KT 10SM CLR 17/10 A2949 RMK AO2
Loading
Personal Weather Stations






























Interactive Weather Map New forecast layout! Learn more

10-Day Weather Forecast

Advertisements
Track Severe Weather on mobile